Tabriz, Iran
Current Conditions -  °F | °C
As of 1:00 PM on Friday 19 Dec 2014 (Local Time) from OITT Reporting Station
Haze Haze  
Wind Chill: 43°   Ceiling: 18000
Heat Index: 43°   Visibility: 3mi
Dew Point: 30°   Wind: 0mph
Humidity: 61%   Direction: NA
Pressure: 30.18"   Gusts: NA
Location:  38.08°N, 46.3°E
Report Text: OITT 190900Z 00000KT 5000 HZ FEW035 BKN180 06/M01 Q1022 A3019NOSIG
Loading
Personal Weather Stations






























Interactive Weather Map New forecast layout! Learn more

10-Day Weather Forecast

Advertisements
Track Severe Weather on mobile